sensor_id;sensor_type;location;lat;lon;timestamp;temperature;humidity
24103;DHT22;12278;53.058;9.028;2023-08-06T00:02:27;15.20;99.90
24103;DHT22;12278;53.058;9.028;2023-08-06T00:06:28;15.20;99.90
24103;DHT22;12278;53.058;9.028;2023-08-06T00:10:29;15.10;99.90
24103;DHT22;12278;53.058;9.028;2023-08-06T00:14:29;15.10;99.90
24103;DHT22;12278;53.058;9.028;2023-08-06T00:18:30;15.20;99.90
24103;DHT22;12278;53.058;9.028;2023-08-06T00:22:32;15.10;99.90
24103;DHT22;12278;53.058;9.028;2023-08-06T00:26:32;15.10;99.90
24103;DHT22;12278;53.058;9.028;2023-08-06T00:30:33;15.10;99.90
24103;DHT22;12278;53.058;9.028;2023-08-06T00:34:34;15.10;99.90
24103;DHT22;12278;53.058;9.028;2023-08-06T00:38:34;15.10;99.90
24103;DHT22;12278;53.058;9.028;2023-08-06T00:42:35;15.10;99.90
24103;DHT22;12278;53.058;9.028;2023-08-06T00:46:36;15.20;99.90
24103;DHT22;12278;53.058;9.028;2023-08-06T00:50:36;15.10;99.90
24103;DHT22;12278;53.058;9.028;2023-08-06T00:54:37;15.10;99.90
24103;DHT22;12278;53.058;9.028;2023-08-06T00:58:38;15.10;99.90
24103;DHT22;12278;53.058;9.028;2023-08-06T01:02:39;15.20;99.90
24103;DHT22;12278;53.058;9.028;2023-08-06T01:11:18;15.20;99.90
24103;DHT22;12278;53.058;9.028;2023-08-06T01:15:28;15.20;99.90
24103;DHT22;12278;53.058;9.028;2023-08-06T01:19:29;15.10;99.90
24103;DHT22;12278;53.058;9.028;2023-08-06T01:23:30;15.10;99.90
24103;DHT22;12278;53.058;9.028;2023-08-06T01:27:38;15.20;99.90
24103;DHT22;12278;53.058;9.028;2023-08-06T01:31:48;15.20;99.90
24103;DHT22;12278;53.058;9.028;2023-08-06T01:35:49;15.10;99.90
24103;DHT22;12278;53.058;9.028;2023-08-06T01:39:51;15.10;99.90
24103;DHT22;12278;53.058;9.028;2023-08-06T01:43:51;15.00;99.90
24103;DHT22;12278;53.058;9.028;2023-08-06T01:47:52;15.10;99.90
24103;DHT22;12278;53.058;9.028;2023-08-06T01:51:53;15.00;99.90
24103;DHT22;12278;53.058;9.028;2023-08-06T01:55:53;15.00;99.90
24103;DHT22;12278;53.058;9.028;2023-08-06T01:59:54;14.90;99.90
24103;DHT22;12278;53.058;9.028;2023-08-06T02:03:54;14.90;99.90
24103;DHT22;12278;53.058;9.028;2023-08-06T02:07:55;14.90;99.90
24103;DHT22;12278;53.058;9.028;2023-08-06T02:11:56;14.90;99.90
24103;DHT22;12278;53.058;9.028;2023-08-06T02:15:56;14.90;99.90
24103;DHT22;12278;53.058;9.028;2023-08-06T02:19:57;14.90;99.90
24103;DHT22;12278;53.058;9.028;2023-08-06T02:23:58;14.80;99.90
24103;DHT22;12278;53.058;9.028;2023-08-06T02:27:59;14.70;99.90
24103;DHT22;12278;53.058;9.028;2023-08-06T02:31:59;14.70;99.90
24103;DHT22;12278;53.058;9.028;2023-08-06T02:36:03;14.70;99.90
24103;DHT22;12278;53.058;9.028;2023-08-06T02:40:05;14.70;99.90
24103;DHT22;12278;53.058;9.028;2023-08-06T02:44:05;14.60;99.90
24103;DHT22;12278;53.058;9.028;2023-08-06T02:48:06;14.50;99.90
24103;DHT22;12278;53.058;9.028;2023-08-06T02:52:07;14.50;99.90
24103;DHT22;12278;53.058;9.028;2023-08-06T02:56:07;14.50;99.90
24103;DHT22;12278;53.058;9.028;2023-08-06T03:00:08;14.40;99.90
24103;DHT22;12278;53.058;9.028;2023-08-06T03:04:09;14.30;99.90
24103;DHT22;12278;53.058;9.028;2023-08-06T03:08:11;14.30;99.90
24103;DHT22;12278;53.058;9.028;2023-08-06T03:12:12;14.30;99.90
24103;DHT22;12278;53.058;9.028;2023-08-06T03:16:12;14.30;99.90
24103;DHT22;12278;53.058;9.028;2023-08-06T03:20:13;14.20;99.90
24103;DHT22;12278;53.058;9.028;2023-08-06T03:24:14;14.20;99.90
24103;DHT22;12278;53.058;9.028;2023-08-06T03:28:15;14.20;99.90
24103;DHT22;12278;53.058;9.028;2023-08-06T03:32:15;14.10;99.90
24103;DHT22;12278;53.058;9.028;2023-08-06T03:36:16;13.80;99.90
24103;DHT22;12278;53.058;9.028;2023-08-06T03:40:17;14.00;99.90
24103;DHT22;12278;53.058;9.028;2023-08-06T03:44:17;14.20;99.90
24103;DHT22;12278;53.058;9.028;2023-08-06T03:48:18;14.30;99.90
24103;DHT22;12278;53.058;9.028;2023-08-06T03:52:19;14.40;99.90
24103;DHT22;12278;53.058;9.028;2023-08-06T03:56:19;14.50;99.90
24103;DHT22;12278;53.058;9.028;2023-08-06T04:00:20;14.60;99.90
24103;DHT22;12278;53.058;9.028;2023-08-06T04:04:21;14.70;99.90
24103;DHT22;12278;53.058;9.028;2023-08-06T04:08:21;14.70;99.90
24103;DHT22;12278;53.058;9.028;2023-08-06T04:12:22;14.80;99.90
24103;DHT22;12278;53.058;9.028;2023-08-06T04:16:23;14.80;99.90
24103;DHT22;12278;53.058;9.028;2023-08-06T04:20:23;14.80;99.90
24103;DHT22;12278;53.058;9.028;2023-08-06T04:24:24;14.80;99.90
24103;DHT22;12278;53.058;9.028;2023-08-06T04:28:25;14.80;99.90
24103;DHT22;12278;53.058;9.028;2023-08-06T04:32:25;14.80;99.90
24103;DHT22;12278;53.058;9.028;2023-08-06T04:36:26;14.80;99.90
24103;DHT22;12278;53.058;9.028;2023-08-06T04:40:27;14.80;99.90
24103;DHT22;12278;53.058;9.028;2023-08-06T04:44:28;14.80;99.90
24103;DHT22;12278;53.058;9.028;2023-08-06T04:48:28;14.70;99.90
24103;DHT22;12278;53.058;9.028;2023-08-06T04:52:29;14.80;99.90
24103;DHT22;12278;53.058;9.028;2023-08-06T04:56:30;14.90;99.90
24103;DHT22;12278;53.058;9.028;2023-08-06T05:00:30;14.90;99.90
24103;DHT22;12278;53.058;9.028;2023-08-06T05:04:31;14.90;99.90
24103;DHT22;12278;53.058;9.028;2023-08-06T05:08:33;14.90;99.90
24103;DHT22;12278;53.058;9.028;2023-08-06T05:12:33;14.80;99.90
24103;DHT22;12278;53.058;9.028;2023-08-06T05:16:34;14.90;99.90
24103;DHT22;12278;53.058;9.028;2023-08-06T05:20:40;14.90;99.90
24103;DHT22;12278;53.058;9.028;2023-08-06T05:24:40;14.90;99.90
24103;DHT22;12278;53.058;9.028;2023-08-06T05:28:41;15.00;99.90
24103;DHT22;12278;53.058;9.028;2023-08-06T05:32:42;15.10;99.90
24103;DHT22;12278;53.058;9.028;2023-08-06T05:36:42;15.10;99.90
24103;DHT22;12278;53.058;9.028;2023-08-06T05:40:43;15.20;99.90
24103;DHT22;12278;53.058;9.028;2023-08-06T05:44:44;15.20;99.90
24103;DHT22;12278;53.058;9.028;2023-08-06T05:48:44;15.30;99.90
24103;DHT22;12278;53.058;9.028;2023-08-06T05:52:45;15.30;99.90
24103;DHT22;12278;53.058;9.028;2023-08-06T05:56:45;15.30;99.90
24103;DHT22;12278;53.058;9.028;2023-08-06T06:00:46;15.30;99.90
24103;DHT22;12278;53.058;9.028;2023-08-06T06:04:47;15.30;99.90
24103;DHT22;12278;53.058;9.028;2023-08-06T06:08:47;15.30;99.90
24103;DHT22;12278;53.058;9.028;2023-08-06T06:12:48;15.50;99.90
24103;DHT22;12278;53.058;9.028;2023-08-06T06:16:48;15.50;99.90
24103;DHT22;12278;53.058;9.028;2023-08-06T06:20:49;15.40;99.90
24103;DHT22;12278;53.058;9.028;2023-08-06T06:24:50;15.40;99.90
24103;DHT22;12278;53.058;9.028;2023-08-06T06:28:50;15.30;99.90
24103;DHT22;12278;53.058;9.028;2023-08-06T06:32:51;15.50;99.90
24103;DHT22;12278;53.058;9.028;2023-08-06T06:36:52;15.60;99.90
24103;DHT22;12278;53.058;9.028;2023-08-06T06:40:56;15.60;99.90
24103;DHT22;12278;53.058;9.028;2023-08-06T06:44:57;15.70;99.90
24103;DHT22;12278;53.058;9.028;2023-08-06T06:48:57;15.80;99.90
24103;DHT22;12278;53.058;9.028;2023-08-06T06:52:58;15.90;99.90
24103;DHT22;12278;53.058;9.028;2023-08-06T06:56:58;15.80;99.90
24103;DHT22;12278;53.058;9.028;2023-08-06T07:00:59;15.80;99.90
24103;DHT22;12278;53.058;9.028;2023-08-06T07:05:00;15.60;99.90
24103;DHT22;12278;53.058;9.028;2023-08-06T07:09:00;15.80;99.90
24103;DHT22;12278;53.058;9.028;2023-08-06T07:13:01;16.10;99.90
24103;DHT22;12278;53.058;9.028;2023-08-06T07:17:02;16.30;99.90
24103;DHT22;12278;53.058;9.028;2023-08-06T07:21:02;16.30;99.90
24103;DHT22;12278;53.058;9.028;2023-08-06T07:25:03;16.60;99.90
24103;DHT22;12278;53.058;9.028;2023-08-06T07:29:04;17.00;99.90
24103;DHT22;12278;53.058;9.028;2023-08-06T07:33:04;17.30;99.90
24103;DHT22;12278;53.058;9.028;2023-08-06T07:37:05;17.40;99.90
24103;DHT22;12278;53.058;9.028;2023-08-06T07:41:06;17.70;99.90
24103;DHT22;12278;53.058;9.028;2023-08-06T07:45:07;17.60;99.90
24103;DHT22;12278;53.058;9.028;2023-08-06T07:49:09;18.30;99.90
24103;DHT22;12278;53.058;9.028;2023-08-06T07:53:11;19.50;99.90
24103;DHT22;12278;53.058;9.028;2023-08-06T07:57:11;19.90;99.90
24103;DHT22;12278;53.058;9.028;2023-08-06T08:01:14;19.90;99.90
24103;DHT22;12278;53.058;9.028;2023-08-06T08:05:14;19.30;99.90
24103;DHT22;12278;53.058;9.028;2023-08-06T08:09:15;19.00;99.90
24103;DHT22;12278;53.058;9.028;2023-08-06T08:13:16;18.50;99.90
24103;DHT22;12278;53.058;9.028;2023-08-06T08:17:16;18.00;99.90
24103;DHT22;12278;53.058;9.028;2023-08-06T08:21:17;17.90;99.90
24103;DHT22;12278;53.058;9.028;2023-08-06T08:25:18;17.80;99.90
24103;DHT22;12278;53.058;9.028;2023-08-06T08:29:22;18.00;99.90
24103;DHT22;12278;53.058;9.028;2023-08-06T08:33:23;18.40;99.90
24103;DHT22;12278;53.058;9.028;2023-08-06T08:37:23;19.50;99.90
24103;DHT22;12278;53.058;9.028;2023-08-06T08:41:24;19.70;99.90
24103;DHT22;12278;53.058;9.028;2023-08-06T08:45:28;19.80;99.90
24103;DHT22;12278;53.058;9.028;2023-08-06T08:49:30;20.00;99.90
24103;DHT22;12278;53.058;9.028;2023-08-06T08:53:31;20.70;99.90
24103;DHT22;12278;53.058;9.028;2023-08-06T08:57:32;21.20;99.90
24103;DHT22;12278;53.058;9.028;2023-08-06T09:01:33;20.90;99.90
24103;DHT22;12278;53.058;9.028;2023-08-06T09:05:35;21.20;99.90
24103;DHT22;12278;53.058;9.028;2023-08-06T09:09:35;21.40;99.90
24103;DHT22;12278;53.058;9.028;2023-08-06T09:13:38;21.20;99.90
24103;DHT22;12278;53.058;9.028;2023-08-06T09:17:39;21.20;99.90
24103;DHT22;12278;53.058;9.028;2023-08-06T09:21:40;20.90;99.90
24103;DHT22;12278;53.058;9.028;2023-08-06T09:25:41;21.20;99.90
24103;DHT22;12278;53.058;9.028;2023-08-06T09:29:43;21.60;99.90
24103;DHT22;12278;53.058;9.028;2023-08-06T09:33:44;21.80;99.90
24103;DHT22;12278;53.058;9.028;2023-08-06T09:37:45;22.10;99.90
24103;DHT22;12278;53.058;9.028;2023-08-06T09:41:47;22.10;99.90
24103;DHT22;12278;53.058;9.028;2023-08-06T09:45:50;21.90;99.90
24103;DHT22;12278;53.058;9.028;2023-08-06T09:49:51;22.20;99.90
24103;DHT22;12278;53.058;9.028;2023-08-06T09:53:52;22.40;99.90
24103;DHT22;12278;53.058;9.028;2023-08-06T09:57:54;22.40;99.90
24103;DHT22;12278;53.058;9.028;2023-08-06T10:01:55;22.10;99.90
24103;DHT22;12278;53.058;9.028;2023-08-06T10:05:56;22.80;99.90
24103;DHT22;12278;53.058;9.028;2023-08-06T10:09:58;22.40;99.90
24103;DHT22;12278;53.058;9.028;2023-08-06T10:18:19;22.10;99.90
24103;DHT22;12278;53.058;9.028;2023-08-06T10:22:22;22.40;99.90
24103;DHT22;12278;53.058;9.028;2023-08-06T10:26:28;22.40;99.90
24103;DHT22;12278;53.058;9.028;2023-08-06T10:30:32;22.50;99.90
24103;DHT22;12278;53.058;9.028;2023-08-06T10:34:58;22.60;99.90
24103;DHT22;12278;53.058;9.028;2023-08-06T10:39:00;23.30;99.90
24103;DHT22;12278;53.058;9.028;2023-08-06T10:43:04;23.20;99.90
24103;DHT22;12278;53.058;9.028;2023-08-06T10:47:26;23.10;99.90
24103;DHT22;12278;53.058;9.028;2023-08-06T10:51:27;23.20;99.90
24103;DHT22;12278;53.058;9.028;2023-08-06T10:55:29;23.00;99.90
24103;DHT22;12278;53.058;9.028;2023-08-06T10:59:30;22.60;99.90
24103;DHT22;12278;53.058;9.028;2023-08-06T11:03:32;23.50;99.90
24103;DHT22;12278;53.058;9.028;2023-08-06T11:07:34;24.00;99.90
24103;DHT22;12278;53.058;9.028;2023-08-06T11:11:35;24.10;99.90
24103;DHT22;12278;53.058;9.028;2023-08-06T11:15:35;24.60;99.90
24103;DHT22;12278;53.058;9.028;2023-08-06T11:19:36;25.00;99.90
24103;DHT22;12278;53.058;9.028;2023-08-06T11:23:37;24.90;99.90
24103;DHT22;12278;53.058;9.028;2023-08-06T11:27:38;25.50;99.90
24103;DHT22;12278;53.058;9.028;2023-08-06T11:31:38;25.10;99.90
24103;DHT22;12278;53.058;9.028;2023-08-06T11:35:39;24.60;99.90
24103;DHT22;12278;53.058;9.028;2023-08-06T11:39:46;25.20;99.90
24103;DHT22;12278;53.058;9.028;2023-08-06T11:43:48;25.50;99.90
24103;DHT22;12278;53.058;9.028;2023-08-06T11:47:52;24.90;99.90
24103;DHT22;12278;53.058;9.028;2023-08-06T11:51:55;24.30;99.90
24103;DHT22;12278;53.058;9.028;2023-08-06T11:55:56;24.50;99.90
24103;DHT22;12278;53.058;9.028;2023-08-06T11:59:57;24.50;99.90
24103;DHT22;12278;53.058;9.028;2023-08-06T12:04:01;23.90;99.90
24103;DHT22;12278;53.058;9.028;2023-08-06T12:08:02;23.70;99.90
24103;DHT22;12278;53.058;9.028;2023-08-06T12:12:04;24.10;99.90
24103;DHT22;12278;53.058;9.028;2023-08-06T12:16:05;24.50;99.90
24103;DHT22;12278;53.058;9.028;2023-08-06T12:20:06;24.60;99.90
24103;DHT22;12278;53.058;9.028;2023-08-06T12:24:07;24.90;99.90
24103;DHT22;12278;53.058;9.028;2023-08-06T12:28:09;25.30;99.90
24103;DHT22;12278;53.058;9.028;2023-08-06T12:32:11;25.60;99.90
24103;DHT22;12278;53.058;9.028;2023-08-06T12:36:12;26.20;99.90
24103;DHT22;12278;53.058;9.028;2023-08-06T12:40:13;26.00;99.90
24103;DHT22;12278;53.058;9.028;2023-08-06T12:44:13;25.10;99.90
24103;DHT22;12278;53.058;9.028;2023-08-06T12:48:14;24.70;99.90
24103;DHT22;12278;53.058;9.028;2023-08-06T12:52:15;25.20;99.90
24103;DHT22;12278;53.058;9.028;2023-08-06T12:56:16;25.80;99.90
24103;DHT22;12278;53.058;9.028;2023-08-06T13:00:17;25.70;99.90
24103;DHT22;12278;53.058;9.028;2023-08-06T13:04:18;25.50;99.90
24103;DHT22;12278;53.058;9.028;2023-08-06T13:08:18;25.20;99.90
24103;DHT22;12278;53.058;9.028;2023-08-06T13:12:19;24.60;99.90
24103;DHT22;12278;53.058;9.028;2023-08-06T13:16:23;23.90;99.90
24103;DHT22;12278;53.058;9.028;2023-08-06T13:20:23;23.90;99.90
24103;DHT22;12278;53.058;9.028;2023-08-06T13:24:24;23.60;99.90
24103;DHT22;12278;53.058;9.028;2023-08-06T13:28:25;23.30;99.90
24103;DHT22;12278;53.058;9.028;2023-08-06T13:32:25;23.20;99.90
24103;DHT22;12278;53.058;9.028;2023-08-06T13:36:26;23.10;99.90
24103;DHT22;12278;53.058;9.028;2023-08-06T13:40:27;23.20;99.90
24103;DHT22;12278;53.058;9.028;2023-08-06T13:44:28;23.20;99.90
24103;DHT22;12278;53.058;9.028;2023-08-06T13:48:29;23.30;99.90
24103;DHT22;12278;53.058;9.028;2023-08-06T13:52:30;23.90;99.90
24103;DHT22;12278;53.058;9.028;2023-08-06T13:56:30;24.90;99.90
24103;DHT22;12278;53.058;9.028;2023-08-06T14:00:31;26.20;99.90
24103;DHT22;12278;53.058;9.028;2023-08-06T14:04:31;25.50;99.90
24103;DHT22;12278;53.058;9.028;2023-08-06T14:08:32;24.10;99.90
24103;DHT22;12278;53.058;9.028;2023-08-06T14:12:33;23.40;99.90
24103;DHT22;12278;53.058;9.028;2023-08-06T14:16:33;23.20;99.90
24103;DHT22;12278;53.058;9.028;2023-08-06T14:20:34;23.30;99.90
24103;DHT22;12278;53.058;9.028;2023-08-06T14:24:35;23.50;99.90
24103;DHT22;12278;53.058;9.028;2023-08-06T14:28:35;23.50;99.90
24103;DHT22;12278;53.058;9.028;2023-08-06T14:32:36;24.50;99.90
24103;DHT22;12278;53.058;9.028;2023-08-06T14:36:36;27.40;99.90
24103;DHT22;12278;53.058;9.028;2023-08-06T14:40:37;27.20;99.90
24103;DHT22;12278;53.058;9.028;2023-08-06T14:44:39;25.90;99.90
24103;DHT22;12278;53.058;9.028;2023-08-06T14:48:39;27.20;99.90
24103;DHT22;12278;53.058;9.028;2023-08-06T14:52:41;27.30;99.90
24103;DHT22;12278;53.058;9.028;2023-08-06T14:56:42;27.60;98.40
24103;DHT22;12278;53.058;9.028;2023-08-06T15:00:42;27.00;99.90
24103;DHT22;12278;53.058;9.028;2023-08-06T15:04:43;26.60;99.90
24103;DHT22;12278;53.058;9.028;2023-08-06T15:08:43;25.70;99.90
24103;DHT22;12278;53.058;9.028;2023-08-06T15:12:48;26.50;99.90
24103;DHT22;12278;53.058;9.028;2023-08-06T15:16:49;27.50;99.80
24103;DHT22;12278;53.058;9.028;2023-08-06T15:20:51;29.10;99.80
24103;DHT22;12278;53.058;9.028;2023-08-06T15:24:53;29.60;96.20
24103;DHT22;12278;53.058;9.028;2023-08-06T15:28:53;30.00;95.50
24103;DHT22;12278;53.058;9.028;2023-08-06T15:32:54;30.30;94.80
24103;DHT22;12278;53.058;9.028;2023-08-06T15:36:54;29.90;92.00
24103;DHT22;12278;53.058;9.028;2023-08-06T15:40:56;30.80;93.10
24103;DHT22;12278;53.058;9.028;2023-08-06T15:44:57;30.50;92.10
24103;DHT22;12278;53.058;9.028;2023-08-06T15:48:57;29.80;93.40
24103;DHT22;12278;53.058;9.028;2023-08-06T15:52:58;27.90;95.60
24103;DHT22;12278;53.058;9.028;2023-08-06T15:56:58;27.40;97.10
24103;DHT22;12278;53.058;9.028;2023-08-06T16:00:59;26.00;99.10
24103;DHT22;12278;53.058;9.028;2023-08-06T16:05:00;26.20;99.90
24103;DHT22;12278;53.058;9.028;2023-08-06T16:09:00;25.70;99.90
24103;DHT22;12278;53.058;9.028;2023-08-06T16:13:01;25.40;99.90
24103;DHT22;12278;53.058;9.028;2023-08-06T16:17:03;26.60;99.40
24103;DHT22;12278;53.058;9.028;2023-08-06T16:21:04;24.60;99.90
24103;DHT22;12278;53.058;9.028;2023-08-06T16:25:04;23.00;99.90
24103;DHT22;12278;53.058;9.028;2023-08-06T16:29:05;22.10;99.90
24103;DHT22;12278;53.058;9.028;2023-08-06T16:33:06;22.90;99.90
24103;DHT22;12278;53.058;9.028;2023-08-06T16:37:06;23.30;99.90
24103;DHT22;12278;53.058;9.028;2023-08-06T16:41:08;24.00;99.90
24103;DHT22;12278;53.058;9.028;2023-08-06T16:45:09;23.50;99.90
24103;DHT22;12278;53.058;9.028;2023-08-06T16:49:10;23.50;99.90
24103;DHT22;12278;53.058;9.028;2023-08-06T16:53:10;22.70;99.90
24103;DHT22;12278;53.058;9.028;2023-08-06T16:57:11;22.40;99.90
24103;DHT22;12278;53.058;9.028;2023-08-06T17:01:12;21.80;99.90
24103;DHT22;12278;53.058;9.028;2023-08-06T17:05:13;21.80;99.90
24103;DHT22;12278;53.058;9.028;2023-08-06T17:09:13;21.80;99.90
24103;DHT22;12278;53.058;9.028;2023-08-06T17:13:14;21.70;99.90
24103;DHT22;12278;53.058;9.028;2023-08-06T17:17:15;21.40;99.90
24103;DHT22;12278;53.058;9.028;2023-08-06T17:21:15;21.20;99.90
24103;DHT22;12278;53.058;9.028;2023-08-06T17:25:16;20.90;99.90
24103;DHT22;12278;53.058;9.028;2023-08-06T17:29:18;20.90;99.90
24103;DHT22;12278;53.058;9.028;2023-08-06T17:33:19;20.70;99.90
24103;DHT22;12278;53.058;9.028;2023-08-06T17:37:19;20.60;99.90
24103;DHT22;12278;53.058;9.028;2023-08-06T17:41:20;20.60;99.90
24103;DHT22;12278;53.058;9.028;2023-08-06T17:45:21;20.60;99.90
24103;DHT22;12278;53.058;9.028;2023-08-06T17:49:23;20.40;99.90
24103;DHT22;12278;53.058;9.028;2023-08-06T17:53:24;20.30;99.90
24103;DHT22;12278;53.058;9.028;2023-08-06T17:57:25;20.10;99.90
24103;DHT22;12278;53.058;9.028;2023-08-06T18:01:26;19.80;99.90
24103;DHT22;12278;53.058;9.028;2023-08-06T18:05:26;19.70;99.90
24103;DHT22;12278;53.058;9.028;2023-08-06T18:09:31;19.60;99.90
24103;DHT22;12278;53.058;9.028;2023-08-06T18:13:32;19.40;99.90
24103;DHT22;12278;53.058;9.028;2023-08-06T18:17:32;19.30;99.90
24103;DHT22;12278;53.058;9.028;2023-08-06T18:21:33;19.10;99.90
24103;DHT22;12278;53.058;9.028;2023-08-06T18:25:34;19.00;99.90
24103;DHT22;12278;53.058;9.028;2023-08-06T18:29:35;18.80;99.90
24103;DHT22;12278;53.058;9.028;2023-08-06T18:33:37;18.80;99.90
24103;DHT22;12278;53.058;9.028;2023-08-06T18:37:38;18.70;99.90
24103;DHT22;12278;53.058;9.028;2023-08-06T18:41:39;18.70;99.90
24103;DHT22;12278;53.058;9.028;2023-08-06T18:45:40;18.70;99.90
24103;DHT22;12278;53.058;9.028;2023-08-06T18:49:41;18.70;99.90
24103;DHT22;12278;53.058;9.028;2023-08-06T18:53:42;18.60;99.90
24103;DHT22;12278;53.058;9.028;2023-08-06T18:57:43;18.50;99.90
24103;DHT22;12278;53.058;9.028;2023-08-06T19:01:44;18.40;99.90
24103;DHT22;12278;53.058;9.028;2023-08-06T19:05:45;18.30;99.90
24103;DHT22;12278;53.058;9.028;2023-08-06T19:09:46;18.20;99.90
24103;DHT22;12278;53.058;9.028;2023-08-06T19:13:47;17.90;99.90
24103;DHT22;12278;53.058;9.028;2023-08-06T19:17:48;17.90;99.90
24103;DHT22;12278;53.058;9.028;2023-08-06T19:21:49;18.00;99.90
24103;DHT22;12278;53.058;9.028;2023-08-06T19:25:52;17.90;99.90
24103;DHT22;12278;53.058;9.028;2023-08-06T19:29:53;17.90;99.90
24103;DHT22;12278;53.058;9.028;2023-08-06T19:33:54;17.80;99.90
24103;DHT22;12278;53.058;9.028;2023-08-06T19:37:55;17.70;99.90
24103;DHT22;12278;53.058;9.028;2023-08-06T19:41:56;17.60;99.90
24103;DHT22;12278;53.058;9.028;2023-08-06T19:45:56;17.50;99.90
24103;DHT22;12278;53.058;9.028;2023-08-06T19:50:00;17.50;99.90
24103;DHT22;12278;53.058;9.028;2023-08-06T19:54:01;17.40;99.90
24103;DHT22;12278;53.058;9.028;2023-08-06T19:58:02;17.30;99.90
24103;DHT22;12278;53.058;9.028;2023-08-06T20:02:03;17.20;99.90
24103;DHT22;12278;53.058;9.028;2023-08-06T20:06:04;17.20;99.90
24103;DHT22;12278;53.058;9.028;2023-08-06T20:10:05;17.20;99.90
24103;DHT22;12278;53.058;9.028;2023-08-06T20:14:06;17.20;99.90
24103;DHT22;12278;53.058;9.028;2023-08-06T20:18:07;17.10;99.90
24103;DHT22;12278;53.058;9.028;2023-08-06T20:22:09;17.00;99.90
24103;DHT22;12278;53.058;9.028;2023-08-06T20:26:10;17.00;99.90
24103;DHT22;12278;53.058;9.028;2023-08-06T20:30:12;16.90;99.90
24103;DHT22;12278;53.058;9.028;2023-08-06T20:34:13;16.80;99.90
24103;DHT22;12278;53.058;9.028;2023-08-06T20:38:13;16.70;99.90
24103;DHT22;12278;53.058;9.028;2023-08-06T20:42:14;16.60;99.90
24103;DHT22;12278;53.058;9.028;2023-08-06T20:46:14;16.60;99.90
24103;DHT22;12278;53.058;9.028;2023-08-06T20:50:15;16.60;99.90
24103;DHT22;12278;53.058;9.028;2023-08-06T20:54:16;16.70;99.90
24103;DHT22;12278;53.058;9.028;2023-08-06T20:58:16;16.60;99.90
24103;DHT22;12278;53.058;9.028;2023-08-06T21:02:17;16.60;99.90
24103;DHT22;12278;53.058;9.028;2023-08-06T21:06:19;16.50;99.90
24103;DHT22;12278;53.058;9.028;2023-08-06T21:10:20;16.50;99.90
24103;DHT22;12278;53.058;9.028;2023-08-06T21:14:20;16.50;99.90
24103;DHT22;12278;53.058;9.028;2023-08-06T21:18:21;16.40;99.90
24103;DHT22;12278;53.058;9.028;2023-08-06T21:22:22;16.40;99.90
24103;DHT22;12278;53.058;9.028;2023-08-06T21:26:22;16.50;99.90
24103;DHT22;12278;53.058;9.028;2023-08-06T21:30:23;16.60;99.90
24103;DHT22;12278;53.058;9.028;2023-08-06T21:34:24;16.60;99.90
24103;DHT22;12278;53.058;9.028;2023-08-06T21:38:25;16.60;99.90
24103;DHT22;12278;53.058;9.028;2023-08-06T21:42:25;16.60;99.90
24103;DHT22;12278;53.058;9.028;2023-08-06T21:46:26;16.60;99.90
24103;DHT22;12278;53.058;9.028;2023-08-06T21:50:27;16.50;99.90
24103;DHT22;12278;53.058;9.028;2023-08-06T21:54:27;16.50;99.90
24103;DHT22;12278;53.058;9.028;2023-08-06T21:58:28;16.20;99.90
24103;DHT22;12278;53.058;9.028;2023-08-06T22:02:29;16.40;99.90
24103;DHT22;12278;53.058;9.028;2023-08-06T22:06:29;16.30;99.90
24103;DHT22;12278;53.058;9.028;2023-08-06T22:10:30;16.40;99.90
24103;DHT22;12278;53.058;9.028;2023-08-06T22:14:30;16.30;99.90
24103;DHT22;12278;53.058;9.028;2023-08-06T22:18:31;16.20;99.90
24103;DHT22;12278;53.058;9.028;2023-08-06T22:22:32;16.30;99.90
24103;DHT22;12278;53.058;9.028;2023-08-06T22:26:35;16.30;99.90
24103;DHT22;12278;53.058;9.028;2023-08-06T22:30:36;16.20;99.90
24103;DHT22;12278;53.058;9.028;2023-08-06T22:34:37;16.10;99.90
24103;DHT22;12278;53.058;9.028;2023-08-06T22:38:39;16.10;99.90
24103;DHT22;12278;53.058;9.028;2023-08-06T22:42:39;16.10;99.90
24103;DHT22;12278;53.058;9.028;2023-08-06T22:46:40;16.10;99.90
24103;DHT22;12278;53.058;9.028;2023-08-06T22:50:41;16.00;99.90
24103;DHT22;12278;53.058;9.028;2023-08-06T22:54:42;15.90;99.90
24103;DHT22;12278;53.058;9.028;2023-08-06T22:58:42;15.90;99.90
24103;DHT22;12278;53.058;9.028;2023-08-06T23:02:43;15.80;99.90
24103;DHT22;12278;53.058;9.028;2023-08-06T23:06:44;16.00;99.90
24103;DHT22;12278;53.058;9.028;2023-08-06T23:10:44;15.80;99.90
24103;DHT22;12278;53.058;9.028;2023-08-06T23:14:45;15.80;99.90
24103;DHT22;12278;53.058;9.028;2023-08-06T23:18:46;15.90;99.90
24103;DHT22;12278;53.058;9.028;2023-08-06T23:22:46;15.80;99.90
24103;DHT22;12278;53.058;9.028;2023-08-06T23:26:47;15.80;99.90
24103;DHT22;12278;53.058;9.028;2023-08-06T23:30:48;15.80;99.90
24103;DHT22;12278;53.058;9.028;2023-08-06T23:34:51;15.80;99.90
24103;DHT22;12278;53.058;9.028;2023-08-06T23:38:52;15.80;99.90
24103;DHT22;12278;53.058;9.028;2023-08-06T23:42:55;15.60;99.90
24103;DHT22;12278;53.058;9.028;2023-08-06T23:46:55;15.60;99.90
24103;DHT22;12278;53.058;9.028;2023-08-06T23:50:56;15.70;99.90
24103;DHT22;12278;53.058;9.028;2023-08-06T23:54:56;15.60;99.90
24103;DHT22;12278;53.058;9.028;2023-08-06T23:58:57;15.50;99.90
